OUA weather

Ouagadougou Airport
Ouagadougou, Kadiogo, Burkina Faso

Public forecast

Using degrees Celsius for public forecast. Weather courtesy of forecast.io.

METAR (pilot weather report)

Retrieved 2019/03/22 16:00 UTC (1 hour ago):

DFFD 221600Z 02006KT 290V100 CAVOK 40/M05 Q1007 NOSIG

TAF (pilot weather forecast)

Forecast is more than 12 hours old.

Retrieved 2019/03/21 00:22 UTC (2 days ago):

TAF DFFD 212300Z 2200/2306 36008KT 8000 NSC TEMPO 2206/2210 4000 DU TEMPO 2217/2220 4000 DU